Latest Coastal Weather Observations for Evans Head

IDN60701

Issued at 11:11 am EST Thursday 5 May 2016 (issued every 10 minutes, with the page automatically refreshed every 10 minutes)

About coastal observations | Map of coastal stations | Coastal observations for NSW | Marine services | Other Formats
Station Details ID: 058212 Name: EVANS HEAD RAAF BOMBING RANGE AWS Lat: -29.18 Lon: 153.40 Height: 62.5 m
Data from the previous 72 hours. | See also: Recent months at Evans Head
Date/Time
EST
Temp

°C
Wind Pressure Rain
since 9am
mm
Weather Cloud Vis
km
Sea
Height
m
Swell
Dir
 
Speed
knots
Gust
knots
hPa Trend Height
m
Period
s
Dir
05/11:00am 23.2 S 2 7 1020.2 - 0.0 - - - - - - -
05/10:30am 23.0 WSW 3 5 1020.6 - 0.0 - - - - - - -
05/10:00am 23.0 WNW 3 6 1020.9 - 0.0 - - - - - - -
05/09:30am 21.1 WSW 5 7 1021.0 - 0.0 - - - - - - -
05/09:00am 20.0 WSW 5 7 1021.0 - 0.0 - - - - - - -
05/08:30am 19.1 WSW 5 7 1020.9 - 0.0 - - - - - - -
05/08:00am 18.3 WSW 1 4 1020.8 - 0.0 - - - - - - -
05/07:30am 16.6 WNW 5 6 1020.5 - 0.0 - - - - - - -
05/07:00am 16.4 WNW 7 8 1020.1 - 0.0 - - - - - - -
05/06:30am 15.0 WNW 6 7 1019.8 - 0.0 - - - - - - -
05/06:00am 14.8 WNW 6 7 1019.5 - 0.0 - - - - - - -
05/05:30am 15.8 W 7 9 1019.2 - 0.0 - - - - - - -
05/05:00am 16.0 W 7 9 1018.9 - 0.0 - - - - - - -
05/04:30am 15.8 W 6 7 1018.6 - 0.0 - - - - - - -
05/04:00am 16.3 W 6 7 1018.3 - 0.0 - - - - - - -
05/03:30am 16.8 W 7 8 1018.2 - 0.0 - - - - - - -
05/03:00am 17.0 W 7 8 1018.1 - 0.0 - - - - - - -
05/02:30am 16.9 W 6 8 1018.0 - 0.0 - - - - - - -
05/02:00am 17.1 W 6 8 1018.2 - 0.0 - - - - - - -
05/01:30am 16.8 WNW 6 7 1018.4 - 0.0 - - - - - - -
05/01:00am 17.1 W 6 8 1018.6 - 0.0 - - - - - - -
05/12:30am 17.6 W 7 9 1018.7 - 0.0 - - - - - - -
05/12:00am 17.6 W 7 8 1018.7 - 0.0 - - - - - - -
 
Date/Time
EST
Temp

°C
Wind Pressure Rain
since 9am
mm
Weather Cloud Vis
km
Sea
Height
m
Swell
Dir
 
Speed
knots
Gust
knots
hPa Trend Height
m
Period
s
Dir
04/11:30pm 18.2 WSW 7 8 1018.8 - 0.0 - - - - - - -
04/11:00pm 18.7 WNW 3 5 1018.8 - 0.0 - - - - - - -
04/10:30pm 19.1 CALM 0 0 1018.8 - 0.0 - - - - - - -
04/10:00pm 19.7 CALM 0 0 1018.8 - 0.0 - - - - - - -
04/09:30pm 19.7 CALM 0 0 1018.8 - 0.0 - - - - - - -
04/09:00pm 19.8 CALM 0 0 1018.8 - 0.0 - - - - - - -
04/08:30pm 19.6 CALM 0 0 1018.7 - 0.0 - - - - - - -
04/08:00pm 19.7 NE 2 4 1018.5 - 0.0 - - - - - - -
04/07:30pm 19.2 NE 3 5 1018.1 - 0.0 - - - - - - -
04/07:00pm 19.9 ENE 6 7 1017.9 - 0.0 - - - - - - -
04/06:30pm 20.0 ENE 5 6 1017.5 - 0.0 - - - - - - -
04/06:00pm 19.9 ENE 5 6 1017.1 - 0.0 - - - - - - -
04/05:30pm 19.8 E 5 6 1016.5 - 0.0 - - - - - - -
04/05:00pm 19.8 ESE 6 8 1016.2 - 0.0 - - - - - - -
04/04:30pm 20.4 SE 5 6 1016.0 - 0.0 - - - - - - -
04/04:00pm 21.4 SE 5 7 1015.7 - 0.0 - - - - - - -
04/03:30pm 22.1 SSE 7 9 1015.4 - 0.0 - - - - - - -
04/03:00pm 22.6 SE 8 10 1015.0 - 0.0 - - - - - - -
04/02:30pm 23.0 SSE 9 12 1014.9 - 0.0 - - - - - - -
04/02:00pm 23.8 SSE 10 13 1014.8 - 0.0 - - - - - - -
04/01:30pm 23.7 SSE 9 13 1015.0 - 0.0 - - - - - - -
04/01:00pm 24.1 SSE 10 14 1015.0 - 0.0 - - - - - - -
04/12:30pm 24.6 S 9 14 1015.3 - 0.0 - - - - - - -
04/12:00pm 24.2 S 9 14 1015.7 - 0.0 - - - - - - -
04/11:30am 24.3 S 9 13 1016.1 - 0.0 - - - - - - -
04/11:00am 24.1 SSW 9 14 1016.4 - 0.0 - - - - - - -
04/10:30am 23.9 SSW 7 11 1016.7 - 0.0 - - - - - - -
04/10:00am 22.6 WSW 6 8 1016.8 - 0.0 - - - - - - -
04/09:30am 22.1 WSW 6 8 1016.7 - 0.0 - - - - - - -
04/09:00am 21.4 SW 6 9 1016.7 - 0.0 - - - - - - -
04/08:30am 20.4 WSW 7 12 1016.6 - 0.0 - - - - - - -
04/08:00am 19.7 W 5 9 1016.3 - 0.0 - - - - - - -
04/07:30am 18.8 W 6 8 1015.8 - 0.0 - - - - - - -
04/07:00am 18.0 W 7 9 1015.4 - 0.0 - - - - - - -
04/06:30am 17.0 W 7 9 1015.0 - 0.0 - - - - - - -
04/06:00am 16.5 WNW 7 8 1014.6 - 0.0 - - - - - - -
04/05:30am 16.4 WNW 6 7 1013.9 - 0.0 - - - - - - -
04/05:00am 15.6 NW 6 7 1013.4 - 0.0 - - - - - - -
04/04:30am 16.2 WNW 6 8 1013.2 - 0.0 - - - - - - -
04/04:00am 16.3 WNW 6 8 1013.0 - 0.0 - - - - - - -
04/03:30am 16.3 WNW 6 8 1012.7 - 0.0 - - - - - - -
04/03:00am 16.3 WNW 6 9 1012.5 - 0.0 - - - - - - -
04/02:30am 17.1 W 6 8 1012.4 - 0.0 - - - - - - -
04/02:00am 17.5 NW 7 9 1012.3 - 0.0 - - - - - - -
04/01:30am 17.9 NW 7 9 1012.5 - 0.0 - - - - - - -
04/01:00am 18.2 NW 6 8 1012.4 - 0.0 - - - - - - -
04/12:30am 18.1 WNW 5 8 1012.4 - 0.0 - - - - - - -
04/12:00am 18.1 WNW 6 8 1012.5 - 0.0 - - - - - - -
 
Date/Time
EST
Temp

°C
Wind Pressure Rain
since 9am
mm
Weather Cloud Vis
km
Sea
Height
m
Swell
Dir
 
Speed
knots
Gust
knots
hPa Trend Height
m
Period
s
Dir
03/11:30pm 18.6 WNW 7 10 1012.6 - 0.0 - - - - - - -
03/11:00pm 18.7 NW 6 9 1012.8 - 0.0 - - - - - - -
03/10:30pm 19.2 WNW 6 9 1012.8 - 0.0 - - - - - - -
03/10:00pm 19.6 NW 8 13 1012.9 - 0.0 - - - - - - -
03/09:30pm 20.1 NW 8 12 1012.7 - 0.0 - - - - - - -
03/09:00pm 20.5 NW 10 16 1012.8 - 0.0 - - - - - - -
03/08:30pm 20.5 NW 9 14 1012.6 - 0.0 - - - - - - -
03/08:00pm 21.1 NW 8 12 1012.5 - 0.0 - - - - - - -
03/07:30pm 21.3 NW 8 12 1012.2 - 0.0 - - - - - - -
03/07:00pm 21.2 NW 7 10 1011.7 - 0.0 - - - - - - -
03/06:30pm 20.9 NW 6 8 1011.3 - 0.0 - - - - - - -
03/06:00pm 20.4 NNE 4 5 1010.9 - 0.0 - - - - - - -
03/05:30pm 20.5 NNE 4 6 1010.3 - 0.0 - - - - - - -
03/05:00pm 21.4 NE 4 7 1010.0 - 0.0 - - - - - - -
03/04:30pm 22.3 ENE 5 7 1009.7 - 0.0 - - - - - - -
03/04:00pm 23.5 E 7 8 1009.6 - 0.0 - - - - - - -
03/03:30pm 26.7 WNW 1 5 1009.5 - 0.0 - - - - - - -
03/03:00pm 27.0 WNW 5 7 1009.6 - 0.0 - - - - - - -
03/02:30pm 26.2 W 6 9 1009.6 - 0.0 - - - - - - -
03/02:00pm 26.0 W 6 9 1009.9 - 0.0 - - - - - - -
03/01:30pm 26.3 NW 7 14 1010.3 - 0.0 - - - - - - -
03/01:00pm 26.4 WNW 5 10 1010.7 - 0.0 - - - - - - -
03/12:30pm 25.8 NW 9 14 1011.2 - 0.0 - - - - - - -
03/12:00pm 25.8 NNW 5 10 1011.7 - 0.0 - - - - - - -
03/11:30am 24.9 NW 6 9 1012.1 - 0.0 - - - - - - -
03/11:00am 24.2 WNW 7 10 1012.5 - 0.0 - - - - - - -
03/10:30am 23.5 NW 7 11 1013.0 - 0.0 - - - - - - -
03/10:00am 22.2 WNW 6 10 1013.5 - 0.0 - - - - - - -
03/09:30am 21.7 W 6 10 1013.8 - 0.0 - - - - - - -
03/09:00am 21.1 NW 7 12 1013.6 - 4.4 - - - - - - -
03/08:30am 20.1 NW 5 11 1013.9 - 4.4 - - - - - - -
03/08:00am 18.9 NW 3 9 1013.8 - 4.4 - - - - - - -
03/07:30am 17.9 N 4 5 1013.6 - 4.4 - - - - - - -
03/07:00am 16.9 N 6 7 1013.4 - 4.4 - - - - - - -
03/06:30am 15.8 NNW 4 6 1013.3 - 4.4 - - - - - - -
03/06:00am 15.8 NNW 5 6 1013.2 - 4.4 - - - - - - -
03/05:30am 16.0 NNW 6 8 1013.1 - 4.4 - - - - - - -
03/05:00am 16.5 NW 7 9 1012.9 - 4.4 - - - - - - -
03/04:30am 16.4 NW 6 10 1012.9 - 4.4 - - - - - - -
03/04:00am 16.7 NNW 7 11 1012.7 - 4.4 - - - - - - -
03/03:30am 16.6 NNW 7 12 1012.4 - 4.4 - - - - - - -
03/03:00am 17.1 NNW 6 9 1012.6 - 4.4 - - - - - - -
03/02:30am 17.0 NW 6 10 1012.7 - 4.4 - - - - - - -
03/02:00am 17.0 NW 5 8 1012.9 - 4.4 - - - - - - -
03/01:30am 17.1 NW 6 11 1013.2 - 4.2 - - - - - - -
03/01:00am 17.4 NW 6 9 1013.8 - 4.2 - - - - - - -
03/12:30am 18.2 W 8 12 1014.3 - 4.2 - - - - - - -
03/12:00am 19.1 WNW 7 9 1014.7 - 4.2 Recent precip. - - - - - -
 
Date/Time
EST
Temp

°C
Wind Pressure Rain
since 9am
mm
Weather Cloud Vis
km
Sea
Height
m
Swell
Dir
 
Speed
knots
Gust
knots
hPa Trend Height
m
Period
s
Dir
02/11:30pm 19.5 NNW 4 5 1014.7 - 4.2 - - - - - - -
02/11:00pm 19.5 W 4 7 1015.5 - 3.6 - - - - - - -
02/10:30pm 19.4 W 6 8 1016.4 - 2.8 - - - - - - -
02/10:00pm 20.5 W 5 6 1016.3 - 2.2 - - - - - - -
02/09:30pm 20.5 WNW 5 7 1016.4 - 1.4 - - - - - - -
02/09:00pm 20.7 W 5 6 1016.7 - 0.4 Rain - - - - - -
02/08:30pm 20.8 W 5 6 1016.9 - 0.0 - - - - - - -
02/08:00pm 20.7 W 5 6 1016.7 - 0.0 - - - - - - -
02/07:30pm 20.9 SSW 4 4 1016.2 - 0.0 - - - - - - -
02/07:00pm 20.9 WSW 3 5 1015.9 - 0.0 - - - - - - -
02/06:30pm 21.2 CALM 0 0 1015.5 - 0.0 - - - - - - -
02/06:00pm 21.2 ESE 3 4 1015.3 - 0.0 - - - - - - -
02/05:30pm 21.1 SE 4 5 1014.8 - 0.0 - - - - - - -
02/05:00pm 21.3 SE 3 4 1014.8 - 0.0 - - - - - - -
02/04:30pm 21.8 CALM 0 0 1014.5 - 0.0 - - - - - - -
02/04:00pm 22.1 CALM 0 0 1014.3 - 0.0 - - - - - - -
02/03:30pm 22.2 ESE 3 5 1013.9 - 0.0 - - - - - - -
02/03:00pm 22.5 ESE 5 7 1013.6 - 0.0 - - - - - - -
02/02:30pm 23.0 E 4 6 1013.6 - 0.0 - - - - - - -
02/02:00pm 23.1 ESE 5 7 1013.7 - 0.0 - - - - - - -
02/01:30pm 23.8 SE 6 8 1014.2 - 0.0 - - - - - - -
02/01:00pm 23.6 SE 6 9 1014.8 - 0.0 - - - - - - -
02/12:30pm 23.9 SSE 5 7 1015.1 - 0.0 - - - - - - -
02/12:00pm 23.7 SE 6 8 1015.6 - 0.0 - - - - - - -
02/11:30am 24.2 SSE 5 7 1016.3 - 0.0 - - - - - - -

Other Formats:

Comma delimited format used in spreadsheet applications
http://www.bom.gov.au/fwo/IDN60701/IDN60701.94598.axf

JavaScript Object Notation format (JSON) in row-major order
http://www.bom.gov.au/fwo/IDN60701/IDN60701.94598.json